ADDS METAR Data INFO
IDs: Format: Raw Decoded Include TAF

Data at: 0149 UTC 17 Oct 2017

KGIF 170053Z AUTO 08007KT 10SM CLR 26/22 A2998 RMK AO2 SLP149 T02610217
KGIF 162353Z AUTO 08009KT 10SM CLR 27/22 A2996 RMK AO2 SLP142 T02670217 10322 20267 53012
KGIF 162253Z AUTO 04005KT 10SM BKN049 30/21 A2993 RMK AO2 SLP132 T03000206
KGIF 162153Z AUTO 00000KT 10SM CLR 32/19 A2992 RMK AO2 SLP128 T03170194
KGIF 162053Z AUTO 10005KT 10SM FEW046 31/20 A2992 RMK AO2 SLP129 T03060200 56019
KGIF 161953Z AUTO 04005KT 10SM FEW075 32/21 A2992 RMK AO2 SLP131 T03170211
KGIF 161853Z AUTO 00000KT 10SM FEW055 31/21 A2994 RMK AO2 SLP138 T03110206
KGIF 161753Z AUTO 02004KT 10SM FEW044 31/21 A2998 RMK AO2 SLP148 T03110206 10317 20233 58022
KGIF 161653Z AUTO 02003KT 10SM FEW033 FEW075 31/21 A3000 RMK AO2 SLP157 T03110211
KGIF 161553Z AUTO 00000KT 10SM FEW026 30/22 A3002 RMK AO2 SLP164 T03000217
KGIF 161524Z AUTO 00000KT 10SM SCT020 28/23 A3003 RMK AO2 T02830228
KGIF 161453Z AUTO VRB03KT 10SM BKN018 28/23 A3004 RMK AO2 SLP170 T02830233 50007
KGIF 161353Z AUTO 00000KT 10SM SCT008 27/23 A3005 RMK AO2 SLP172 T02670233
KGIF 161253Z AUTO 00000KT 10SM SCT002 24/24 A3003 RMK AO2 SLP168 T02440239
KGIF 161153Z AUTO 00000KT 6SM BR OVC002 24/23 A3002 RMK AO2 SLP163 70002 T02390228 10244 20228 51011
KGIF 161146Z AUTO 02003KT 2 1/2SM BR OVC002 23/23 A3002 RMK AO2 T02330228
KGIF 161143Z AUTO 02004KT 1 3/4SM BR OVC002 23/23 A3002 RMK AO2 T02330228
KGIF 161136Z AUTO 00000KT 3/4SM BR VV002 23/23 A3002 RMK AO2 T02330228
KGIF 161126Z AUTO 06003KT 1 1/4SM BR OVC002 23/23 A3001 RMK AO2 T02330228
KGIF 161111Z AUTO 03003KT 1/2SM FG VV002 23/23 A3001 RMK AO2 T02330228
KGIF 161100Z AUTO 04003KT 1 1/2SM BR OVC002 23/23 A3001 RMK AO2 T02330228
KGIF 161058Z AUTO 04003KT 2SM BR BKN002 23/23 A3001 RMK AO2 T02330228
KGIF 161053Z AUTO 03004KT 3SM BR BKN002 23/23 A3000 RMK AO2 SLP158 T02330228
KGIF 161050Z AUTO 02004KT 4SM BR BKN002 23/23 A3000 RMK AO2
KGIF 161006Z AUTO 02003KT 4SM BR FEW004 23/22 A2999 RMK AO2 T02280222
KGIF 160953Z AUTO 00000KT 9SM CLR 23/22 A2999 RMK AO2 SLP152 T02330222
KGIF 160853Z AUTO 00000KT 9SM CLR 23/23 A2998 RMK AO2 SLP150 T02330228 56008
KGIF 160753Z AUTO 00000KT 10SM CLR 24/23 A2999 RMK AO2 SLP152 T02390228
KGIF 160653Z AUTO 02004KT 10SM CLR 24/23 A3000 RMK AO2 SLP155 T02390228
KGIF 160553Z AUTO 09004KT 10SM CLR 24/23 A3001 RMK AO2 SLP158 T02440233 10267 20244 58016
KGIF 160453Z AUTO 09004KT 10SM CLR 24/23 A3002 RMK AO2 SLP164 T02440228 403170222
KGIF 160353Z AUTO 06003KT 10SM CLR 24/23 A3005 RMK AO2 SLP173 T02440228
KGIF 160253Z AUTO 00000KT 10SM CLR 25/23 A3005 RMK AO2 SLP174 T02500228 53012
KGIF 160153Z AUTO 07005KT 10SM CLR 26/22 A3004 RMK AO2 SLP170 T02560222
KGIF 160053Z AUTO 07006KT 10SM CLR 26/22 A3002 RMK AO2 SLP164 T02610222
KGIF 152353Z AUTO 09005KT 10SM CLR 27/23 A3002 RMK AO2 SLP162 60002 T02670228 10317 20267 53007
KGIF 152314Z AUTO 12005KT 10SM FEW002 FEW035 SCT044 28/23 A3001 RMK AO2 T02780228
KGIF 152253Z AUTO 08007KT 10SM SCT034 BKN044 BKN050 28/22 A3000 RMK AO2 SLP158 T02780222
KGIF 152153Z AUTO 08004KT 10SM CLR 28/23 A2998 RMK AO2 RAB02E25 SLP150 P0002 T02830233
KGIF 152053Z AUTO 10014G17KT 10SM SCT038 SCT047 31/22 A3000 RMK AO2 SLP155 T03060217 56016
KGIF 151953Z AUTO 10010KT 10SM CLR 31/21 A3000 RMK AO2 LTG DSNT SE SLP156 T03110211
KGIF 151853Z AUTO 04010G15KT 10SM SCT035 BKN044 BKN050 32/23 A3002 RMK AO2 SLP162 T03170228
KGIF 151753Z AUTO 11005KT 10SM FEW050 FEW090 31/22 A3004 RMK AO2 SLP170 T03060222 10311 20228 58020
KGIF 151653Z AUTO 09006KT 10SM CLR 31/23 A3007 RMK AO2 SLP181 T03060228
KGIF 151615Z AUTO 07008KT 10SM FEW025 30/22 A3009 RMK AO2 T03000222
KGIF 151553Z AUTO 11007KT 10SM BKN025 BKN031 29/23 A3009 RMK AO2 SLP188 T02940228
KGIF 151541Z AUTO 04007KT 10SM BKN023 BKN050 29/23 A3009 RMK AO2 T02940228
KGIF 151453Z AUTO 07009KT 10SM CLR 28/23 A3010 RMK AO2 SLP191 T02830228 50009
KGIF 151353Z AUTO 05008KT 10SM CLR 27/23 A3010 RMK AO2 SLP191 T02720233